createdAt,value
2023-03-20T00:02:53.133Z,95350.00
2023-03-20T01:18:37.297Z,95367.00
2023-03-20T01:22:38.220Z,95360.00
2023-03-20T01:26:38.204Z,95365.00
2023-03-20T01:30:38.259Z,95369.00
2023-03-20T01:34:38.442Z,95375.00
2023-03-20T01:38:38.439Z,95373.00
2023-03-20T01:42:38.640Z,95373.00
2023-03-20T01:46:38.879Z,95371.00
2023-03-20T01:50:39.150Z,95377.00
2023-03-20T01:54:39.485Z,95381.00
2023-03-20T01:58:38.051Z,95379.00
2023-03-20T02:02:39.144Z,95375.00
2023-03-20T02:06:39.088Z,95371.00
2023-03-20T02:10:39.100Z,95373.00
2023-03-20T02:14:39.170Z,95373.00
2023-03-20T02:18:39.301Z,95373.00
2023-03-20T02:26:58.253Z,95377.00
2023-03-20T02:30:59.085Z,95377.00
2023-03-20T02:34:58.749Z,95377.00
2023-03-20T02:38:58.649Z,95375.00
2023-03-20T02:42:58.345Z,95377.00
2023-03-20T02:46:58.307Z,95373.00
2023-03-20T02:50:58.358Z,95369.00
2023-03-20T02:54:58.213Z,95369.00
2023-03-20T02:58:58.035Z,95365.00
2023-03-20T03:02:58.064Z,95363.00
2023-03-20T03:06:58.359Z,95365.00
2023-03-20T03:10:57.601Z,95360.00
2023-03-20T03:14:57.959Z,95358.00
2023-03-20T03:18:58.853Z,95363.00
2023-03-20T03:22:58.386Z,95365.00
2023-03-20T03:26:57.334Z,95363.00
2023-03-20T03:30:57.957Z,95363.00
2023-03-20T03:34:55.912Z,95363.00
2023-03-20T03:38:56.777Z,95363.00
2023-03-20T03:42:56.604Z,95361.00
2023-03-20T03:46:56.530Z,95365.00
2023-03-20T03:50:56.346Z,95367.00
2023-03-20T03:59:16.894Z,95369.00
2023-03-20T04:07:49.680Z,95375.00
2023-03-20T04:11:35.354Z,95379.00
2023-03-20T04:15:35.170Z,95381.00
2023-03-20T04:19:34.790Z,95387.00
2023-03-20T04:23:34.572Z,95389.00
2023-03-20T04:27:34.349Z,95395.00
2023-03-20T04:31:34.138Z,95393.00
2023-03-20T04:35:34.019Z,95395.00
2023-03-20T04:39:33.712Z,95399.00
2023-03-20T04:43:33.445Z,95401.00
2023-03-20T04:47:33.233Z,95405.00
2023-03-20T04:51:33.057Z,95405.00
2023-03-20T04:55:32.928Z,95405.00
2023-03-20T04:59:32.626Z,95407.00
2023-03-20T05:03:32.410Z,95420.00
2023-03-20T05:07:32.219Z,95422.00
2023-03-20T05:11:31.984Z,95422.00
2023-03-20T05:15:31.789Z,95426.00
2023-03-20T05:23:52.314Z,95428.00
2023-03-20T05:32:09.927Z,95430.00
2023-03-20T05:40:35.076Z,95438.00
2023-03-20T05:48:48.991Z,95444.00
2023-03-20T05:52:51.606Z,95448.00
2023-03-20T05:57:03.780Z,95442.00
2023-03-20T06:00:49.123Z,95440.00
2023-03-20T06:04:49.113Z,95446.00
2023-03-20T06:13:07.310Z,95450.00
2023-03-20T06:30:06.090Z,95469.00
2023-03-20T06:38:39.244Z,95471.00
2023-03-20T06:42:28.686Z,95471.00
2023-03-20T06:50:55.389Z,95477.00
2023-03-20T06:54:47.270Z,95479.00
2023-03-20T06:58:44.956Z,95481.00
2023-03-20T07:07:04.053Z,95495.00
2023-03-20T07:11:04.604Z,95493.00
2023-03-20T07:15:04.087Z,95499.00
2023-03-20T07:19:03.738Z,95503.00
2023-03-20T07:23:03.550Z,95508.00
2023-03-20T07:27:03.547Z,95508.00
2023-03-20T07:31:03.668Z,95514.00
2023-03-20T07:35:03.506Z,95518.00
2023-03-20T07:39:03.550Z,95520.00
2023-03-20T07:43:04.013Z,95518.00
2023-03-20T07:47:02.982Z,95514.00
2023-03-20T07:51:02.489Z,95520.00
2023-03-20T07:55:02.567Z,95526.00
2023-03-20T08:03:21.741Z,95528.00
2023-03-20T08:07:21.989Z,95524.00
2023-03-20T08:11:21.754Z,95524.00
2023-03-20T08:19:40.311Z,95522.00
2023-03-20T08:23:41.429Z,95522.00
2023-03-20T08:27:40.593Z,95528.00
2023-03-20T08:31:40.801Z,95524.00
2023-03-20T08:35:40.022Z,95530.00
2023-03-20T08:39:39.955Z,95528.00
2023-03-20T08:43:40.015Z,95534.00
2023-03-20T08:47:40.703Z,95532.00
2023-03-20T08:51:39.974Z,95530.00
2023-03-20T08:55:40.052Z,95528.00
2023-03-20T08:59:43.278Z,95524.00
2023-03-20T09:03:39.934Z,95524.00
2023-03-20T09:07:38.960Z,95526.00
2023-03-20T09:11:38.925Z,95528.00
2023-03-20T09:15:38.875Z,95532.00
2023-03-20T09:19:41.438Z,95536.00
2023-03-20T09:23:38.461Z,95534.00
2023-03-20T09:27:37.965Z,95532.00
2023-03-20T09:31:37.606Z,95526.00
2023-03-20T09:35:51.107Z,95518.00
2023-03-20T09:39:37.738Z,95520.00
2023-03-20T09:43:37.149Z,95508.00
2023-03-20T09:47:37.221Z,95505.00
2023-03-20T09:51:36.998Z,95499.00
2023-03-20T09:55:36.464Z,95497.00
2023-03-20T09:59:35.960Z,95495.00
2023-03-20T10:03:36.084Z,95487.00
2023-03-20T10:07:36.510Z,95483.00
2023-03-20T10:11:36.482Z,95479.00
2023-03-20T10:15:36.512Z,95475.00
2023-03-20T10:19:36.470Z,95467.00
2023-03-20T10:23:37.080Z,95471.00
2023-03-20T10:27:36.617Z,95469.00
2023-03-20T10:31:38.036Z,95469.00
2023-03-20T10:35:37.053Z,95465.00
2023-03-20T10:39:37.517Z,95463.00
2023-03-20T10:43:39.765Z,95461.00
2023-03-20T10:47:36.629Z,95461.00
2023-03-20T10:51:36.492Z,95458.00
2023-03-20T10:59:55.425Z,95440.00
2023-03-20T11:03:56.589Z,95428.00
2023-03-20T11:07:56.768Z,95430.00
2023-03-20T11:11:56.413Z,95428.00
2023-03-20T11:15:56.356Z,95430.00
2023-03-20T11:19:55.789Z,95426.00
2023-03-20T11:23:55.760Z,95420.00
2023-03-20T11:27:55.774Z,95420.00
2023-03-20T11:31:55.837Z,95418.00
2023-03-20T11:35:56.890Z,95414.00
2023-03-20T11:39:55.816Z,95403.00
2023-03-20T11:43:55.835Z,95401.00
2023-03-20T11:52:14.652Z,95385.00
2023-03-20T11:56:15.649Z,95385.00
2023-03-20T12:00:14.585Z,95383.00
2023-03-20T12:04:14.579Z,95389.00
2023-03-20T12:08:14.445Z,95385.00
2023-03-20T12:12:14.051Z,95373.00
2023-03-20T12:20:32.368Z,95369.00
2023-03-20T12:24:33.592Z,95363.00
2023-03-20T12:28:32.770Z,95365.00
2023-03-20T12:32:32.949Z,95361.00
2023-03-20T12:36:32.870Z,95360.00
2023-03-20T12:40:32.384Z,95361.00
2023-03-20T12:44:32.750Z,95360.00
2023-03-20T12:48:32.742Z,95358.00
2023-03-20T12:52:32.244Z,95356.00
2023-03-20T12:56:32.514Z,95356.00
2023-03-20T13:00:32.301Z,95354.00
2023-03-20T13:04:32.254Z,95350.00
2023-03-20T13:08:32.261Z,95348.00
2023-03-20T13:12:32.290Z,95354.00
2023-03-20T13:16:31.852Z,95346.00
2023-03-20T13:20:31.745Z,95346.00
2023-03-20T13:24:31.808Z,95350.00
2023-03-20T13:28:31.776Z,95348.00
2023-03-20T14:57:09.764Z,95346.00
2023-03-20T15:01:10.668Z,95352.00
2023-03-20T15:05:10.146Z,95354.00
2023-03-20T15:09:10.426Z,95350.00
2023-03-20T15:13:10.082Z,95348.00
2023-03-20T15:17:09.601Z,95342.00
2023-03-20T15:21:09.580Z,95350.00
2023-03-20T15:25:09.091Z,95344.00
2023-03-20T15:29:09.625Z,95342.00
2023-03-20T15:33:09.208Z,95342.00
2023-03-20T15:37:11.121Z,95338.00
2023-03-20T15:41:09.090Z,95342.00
2023-03-20T15:45:08.809Z,95342.00
2023-03-20T15:49:09.114Z,95342.00
2023-03-20T15:53:08.427Z,95340.00
2023-03-20T15:57:08.217Z,95342.00
2023-03-20T16:01:08.618Z,95336.00
2023-03-20T16:05:07.890Z,95336.00
2023-03-20T16:09:08.084Z,95332.00
2023-03-20T16:17:26.842Z,95328.00
2023-03-20T16:21:27.158Z,95324.00
2023-03-20T16:25:27.332Z,95326.00
2023-03-20T16:29:27.394Z,95330.00
2023-03-20T16:33:26.923Z,95324.00
2023-03-20T16:37:26.773Z,95322.00
2023-03-20T16:41:26.871Z,95326.00
2023-03-20T16:49:45.300Z,95326.00
2023-03-20T16:58:04.820Z,95328.00
2023-03-20T17:02:05.635Z,95326.00
2023-03-20T17:06:05.284Z,95324.00
2023-03-20T17:10:05.045Z,95328.00
2023-03-20T17:14:05.469Z,95332.00
2023-03-20T17:18:04.675Z,95332.00
2023-03-20T17:22:04.530Z,95336.00
2023-03-20T17:26:04.139Z,95336.00
2023-03-20T17:38:41.700Z,95344.00
2023-03-20T17:42:42.587Z,95346.00
2023-03-20T17:46:56.570Z,95344.00
2023-03-20T17:50:42.062Z,95346.00
2023-03-20T17:54:41.794Z,95344.00
2023-03-20T17:58:41.267Z,95350.00
2023-03-20T18:02:41.065Z,95350.00
2023-03-20T18:06:41.092Z,95350.00
2023-03-20T18:10:40.945Z,95352.00
2023-03-20T18:14:40.448Z,95354.00
2023-03-20T18:18:40.259Z,95358.00
2023-03-20T18:22:40.046Z,95360.00
2023-03-20T18:26:40.696Z,95365.00
2023-03-20T18:30:40.045Z,95367.00
2023-03-20T18:34:39.892Z,95369.00
2023-03-20T18:38:39.876Z,95371.00
2023-03-20T18:42:39.820Z,95379.00
2023-03-20T18:46:39.734Z,95379.00
2023-03-20T18:50:39.929Z,95381.00
2023-03-20T18:54:39.738Z,95387.00
2023-03-20T18:58:39.820Z,95391.00
2023-03-20T19:02:39.622Z,95391.00
2023-03-20T19:06:39.562Z,95395.00
2023-03-20T19:10:39.486Z,95397.00
2023-03-20T19:14:39.076Z,95399.00
2023-03-20T19:18:40.161Z,95397.00
2023-03-20T19:22:38.824Z,95399.00
2023-03-20T19:26:39.104Z,95414.00
2023-03-20T19:30:39.274Z,95407.00
2023-03-20T19:35:31.223Z,95405.00
2023-03-20T19:38:38.529Z,95418.00
2023-03-20T19:42:59.021Z,95422.00
2023-03-20T19:46:40.753Z,95422.00
2023-03-20T19:50:41.244Z,95428.00
2023-03-20T19:54:37.793Z,95432.00
2023-03-20T19:58:38.094Z,95434.00
2023-03-20T20:02:38.232Z,95434.00
2023-03-20T20:06:39.822Z,95436.00
2023-03-20T20:10:38.350Z,95434.00
2023-03-20T20:14:37.763Z,95434.00
2023-03-20T20:18:38.120Z,95430.00
2023-03-20T20:22:37.320Z,95430.00
2023-03-20T20:26:41.200Z,95432.00
2023-03-20T20:30:37.169Z,95436.00
2023-03-20T20:38:50.083Z,95446.00
2023-03-20T20:42:36.650Z,95444.00
2023-03-20T20:46:36.584Z,95446.00
2023-03-20T20:50:36.413Z,95448.00
2023-03-20T20:54:36.189Z,95452.00
2023-03-20T20:58:36.052Z,95454.00
2023-03-20T21:02:35.971Z,95460.00
2023-03-20T21:07:05.578Z,95456.00
2023-03-20T21:10:35.665Z,95456.00
2023-03-20T21:14:35.520Z,95458.00
2023-03-20T21:18:35.357Z,95460.00
2023-03-20T21:22:35.180Z,95463.00
2023-03-20T21:26:35.181Z,95461.00
2023-03-20T21:34:53.419Z,95465.00
2023-03-20T21:39:09.900Z,95471.00
2023-03-20T21:42:54.673Z,95465.00
2023-03-20T21:51:34.339Z,95460.00
2023-03-20T22:03:28.821Z,95461.00
2023-03-20T22:07:42.716Z,95461.00
2023-03-20T22:20:38.392Z,95461.00
2023-03-20T22:28:33.302Z,95461.00
2023-03-20T22:41:25.176Z,95458.00
2023-03-20T22:57:08.453Z,95458.00
2023-03-20T23:01:09.398Z,95454.00
2023-03-20T23:05:09.143Z,95454.00
2023-03-20T23:09:15.046Z,95452.00
2023-03-20T23:13:08.849Z,95448.00
2023-03-20T23:17:08.623Z,95440.00
2023-03-20T23:21:08.509Z,95442.00
2023-03-20T23:25:23.899Z,95444.00
2023-03-20T23:29:08.268Z,95442.00
2023-03-20T23:33:08.103Z,95446.00
2023-03-20T23:37:08.188Z,95450.00
2023-03-20T23:41:08.290Z,95450.00
2023-03-20T23:45:19.564Z,95446.00
2023-03-20T23:49:07.608Z,95448.00
2023-03-20T23:57:26.258Z,95444.00
